| time (UTC) | temp F | wind direction | speed MPH | gust MPH | rain 1hr in | rain 24hr in | rain mn in | humidity % | barometer mb |
| 20260507111536 | 46 | 283 | 1.0 | 4.0 | 0.00 | 0.15 | 0.00 | 86 | 1007.7 |
| 20260507110031 | 44 | 137 | 0.0 | 4.0 | 0.00 | 0.15 | 0.00 | 89 | 1007.7 |
| 20260507104526 | 44 | 71 | 0.0 | 3.0 | 0.00 | 0.15 | 0.00 | 88 | 1007.3 |
| 20260507103027 | 44 | 70 | 0.0 | 3.0 | 0.00 | 0.15 | 0.00 | 89 | 1007.2 |
| 20260507101524 | 44 | 70 | 0.0 | 0.0 | 0.00 | 0.15 | 0.00 | 90 | 1007.1 |
| 20260507100023 | 44 | 101 | 1.0 | 6.0 | 0.00 | 0.15 | 0.00 | 91 | 1007.2 |
| 20260507094524 | 45 | 218 | 1.0 | 2.0 | 0.00 | 0.15 | 0.00 | 90 | 1007.0 |
| 20260507093019 | 45 | 218 | 0.0 | 2.0 | 0.00 | 0.15 | 0.00 | 90 | 1007.1 |
| 20260507091518 | 45 | 218 | 0.0 | 3.0 | 0.00 | 0.15 | 0.00 | 89 | 1007.4 |
| 20260507090017 | 45 | 143 | 0.0 | 2.0 | 0.00 | 0.15 | 0.00 | 90 | 1007.4 |
| 20260507084617 | 45 | 188 | 0.0 | 0.0 | 0.00 | 0.15 | 0.00 | 90 | 1007.7 |
| 20260507083020 | 45 | 202 | 0.0 | 0.0 | 0.00 | 0.15 | 0.00 | 91 | 1007.2 |
| 20260507081527 | 45 | 205 | 0.0 | 0.0 | 0.00 | 0.15 | 0.00 | 90 | 1007.0 |
| 20260507080013 | 45 | 205 | 0.0 | 2.0 | 0.00 | 0.15 | 0.00 | 89 | 1006.8 |
| 20260507074509 | 46 | 211 | 0.0 | 2.0 | 0.00 | 0.15 | 0.00 | 89 | 1006.8 |
| 20260507073009 | 46 | 211 | 1.0 | 3.0 | 0.00 | 0.15 | 0.00 | 86 | 1007.3 |
| 20260507071507 | 46 | 170 | 0.0 | 4.0 | 0.00 | 0.15 | 0.00 | 87 | 1007.0 |
| 20260507070010 | 46 | 24 | 0.0 | 2.0 | 0.00 | 0.15 | 0.00 | 88 | 1006.7 |
| 20260507064504 | 46 | 60 | 1.0 | 4.0 | 0.00 | 0.15 | 0.00 | 88 | 1006.3 |
| 20260507063003 | 47 | 22 | 1.0 | 6.0 | 0.00 | 0.15 | 0.00 | 88 | 1006.5 |
| 20260507061601 | 47 | 30 | 0.0 | 4.0 | 0.00 | 0.15 | 0.00 | 87 | 1006.5 |
| 20260507060059 | 47 | 138 | 1.0 | 4.0 | 0.00 | 0.15 | 0.00 | 88 | 1006.5 |
| 20260507054607 | 48 | 169 | 1.0 | 4.0 | 0.00 | 0.15 | 0.00 | 88 | 1006.7 |
| 20260507053054 | 48 | 281 | 0.0 | 3.0 | 0.00 | 0.15 | 0.00 | 89 | 1006.9 |
| 20260507051554 | 48 | 255 | 0.0 | 4.0 | 0.00 | 0.15 | 0.00 | 89 | 1006.9 |
| 20260507050049 | 49 | 26 | 1.0 | 4.0 | 0.00 | 0.15 | 0.00 | 89 | 1007.0 |
| 20260507044547 | 49 | 135 | 0.0 | 2.0 | 0.00 | 0.15 | 0.00 | 91 | 1006.8 |
| 20260507043045 | 49 | 102 | 0.0 | 8.0 | 0.00 | 0.15 | 0.00 | 90 | 1006.3 |
| 20260507041552 | 50 | 290 | 3.0 | 9.0 | 0.00 | 0.15 | 0.00 | 91 | 1006.4 |
| 20260507040037 | 50 | 163 | 2.0 | 8.0 | 0.00 | 0.15 | 0.15 | 91 | 1006.5 |
| 20260507034537 | 50 | 198 | 1.0 | 7.0 | 0.00 | 0.15 | 0.15 | 91 | 1006.2 |
| 20260507033035 | 51 | 349 | 3.0 | 9.0 | 0.01 | 0.15 | 0.15 | 90 | 1006.0 |
| 20260507031531 | 51 | 298 | 3.0 | 10.0 | 0.02 | 0.15 | 0.15 | 91 | 1005.9 |
| 20260507030029 | 52 | 284 | 3.0 | 13.0 | 0.02 | 0.15 | 0.15 | 91 | 1005.7 |
| 20260507024525 | 53 | 323 | 5.0 | 13.0 | 0.02 | 0.15 | 0.15 | 91 | 1005.7 |
| 20260507023021 | 54 | 210 | 5.0 | 16.0 | 0.02 | 0.14 | 0.14 | 89 | 1006.1 |
| 20260507021516 | 56 | 192 | 5.0 | 15.0 | 0.01 | 0.13 | 0.13 | 91 | 1005.7 |
| 20260507020014 | 57 | 215 | 3.0 | 9.0 | 0.01 | 0.13 | 0.13 | 91 | 1005.0 |
| 20260507014520 | 58 | 198 | 1.0 | 9.0 | 0.01 | 0.13 | 0.13 | 92 | 1005.1 |
| 20260507013029 | 58 | 153 | 2.0 | 6.0 | 0.00 | 0.12 | 0.12 | 93 | 1005.0 |
| 20260507011511 | 58 | 164 | 4.0 | 11.0 | 0.00 | 0.12 | 0.12 | 93 | 1004.7 |
| 20260507010006 | 58 | 130 | 4.0 | 11.0 | 0.00 | 0.12 | 0.12 | 92 | 1004.8 |
| 20260507004504 | 59 | 128 | 5.0 | 15.0 | 0.00 | 0.12 | 0.12 | 92 | 1004.6 |
| 20260507003002 | 59 | 126 | 6.0 | 14.0 | 0.00 | 0.12 | 0.12 | 92 | 1004.5 |
| 20260507001502 | 59 | 180 | 3.0 | 11.0 | 0.00 | 0.12 | 0.12 | 92 | 1004.2 |
| 20260507000101 | 59 | 175 | 3.0 | 12.0 | 0.00 | 0.12 | 0.12 | 92 | 1004.3 |
| 20260506234559 | 59 | 113 | 2.0 | 13.0 | 0.00 | 0.12 | 0.12 | 91 | 1004.1 |
| 20260506233107 | 59 | 128 | 4.0 | 12.0 | 0.00 | 0.12 | 0.12 | 91 | 1003.9 |
| 20260506231558 | 59 | 167 | 5.0 | 13.0 | 0.00 | 0.12 | 0.12 | 91 | 1004.0 |
| 20260506230057 | 59 | 142 | 3.0 | 12.0 | 0.00 | 0.12 | 0.12 | 92 | 1004.0 |
| 20260506224555 | 59 | 250 | 3.0 | 12.0 | 0.00 | 0.12 | 0.12 | 92 | 1004.1 |
| 20260506223108 | 59 | 126 | 1.0 | 8.0 | 0.00 | 0.12 | 0.12 | 92 | 1004.2 |
| 20260506221557 | 59 | 155 | 6.0 | 15.0 | 0.01 | 0.12 | 0.12 | 91 | 1004.3 |
| 20260506220051 | 59 | 155 | 5.0 | 16.0 | 0.02 | 0.12 | 0.12 | 92 | 1004.3 |
| 20260506214600 | 59 | 162 | 6.0 | 15.0 | 0.02 | 0.12 | 0.12 | 92 | 1004.3 |
| 20260506213050 | 59 | 122 | 0.0 | 7.0 | 0.02 | 0.12 | 0.12 | 93 | 1004.3 |
| 20260506211549 | 59 | 163 | 5.0 | 11.0 | 0.02 | 0.11 | 0.11 | 92 | 1004.3 |
| 20260506210050 | 59 | 146 | 6.0 | 20.0 | 0.02 | 0.10 | 0.10 | 92 | 1004.3 |
| 20260506204545 | 59 | 189 | 5.0 | 10.0 | 0.02 | 0.10 | 0.10 | 93 | 1004.5 |
| 20260506203046 | 60 | 140 | 8.0 | 14.0 | 0.04 | 0.10 | 0.10 | 92 | 1004.6 |
| 20260506201542 | 60 | 122 | 2.0 | 8.0 | 0.03 | 0.09 | 0.09 | 92 | 1004.7 |
| 20260506194540 | 60 | 87 | 4.0 | 12.0 | 0.03 | 0.08 | 0.08 | 91 | 1005.0 |
| 20260506193041 | 61 | 132 | 3.0 | 9.0 | 0.01 | 0.06 | 0.06 | 90 | 1005.1 |
| 20260506191538 | 61 | 132 | 4.0 | 9.0 | 0.02 | 0.06 | 0.06 | 90 | 1005.2 |
| 20260506190036 | 61 | 175 | 2.0 | 9.0 | 0.02 | 0.06 | 0.06 | 91 | 1005.1 |
| 20260506184535 | 61 | 145 | 4.0 | 8.0 | 0.03 | 0.05 | 0.05 | 90 | 1005.1 |
| 20260506183034 | 61 | 121 | 4.0 | 8.0 | 0.04 | 0.05 | 0.05 | 90 | 1005.5 |
| 20260506181535 | 61 | 132 | 1.0 | 4.0 | 0.04 | 0.04 | 0.04 | 89 | 1006.0 |
| 20260506180035 | 61 | 121 | 1.0 | 3.0 | 0.04 | 0.04 | 0.04 | 87 | 1006.2 |
| 20260506174528 | 62 | 184 | 0.0 | 5.0 | 0.02 | 0.02 | 0.02 | 85 | 1006.4 |
| 20260506173024 | 63 | 232 | 1.0 | 7.0 | 0.01 | 0.01 | 0.01 | 80 | 1006.6 |
| 20260506171538 | 64 | 132 | 5.0 | 16.0 | 0.00 | 0.00 | 0.00 | 75 | 1006.5 |
| 20260506170023 | 65 | 147 | 5.0 | 14.0 | 0.00 | 0.00 | 0.00 | 72 | 1006.4 |
| 20260506164525 | 65 | 138 | 5.0 | 14.0 | 0.00 | 0.00 | 0.00 | 71 | 1006.5 |
| 20260506163025 | 66 | 126 | 4.0 | 16.0 | 0.00 | 0.00 | 0.00 | 70 | 1006.5 |
| 20260506161534 | 66 | 116 | 4.0 | 19.0 | 0.00 | 0.00 | 0.00 | 70 | 1006.9 |
| 20260506160018 | 66 | 125 | 7.0 | 14.0 | 0.00 | 0.00 | 0.00 | 69 | 1007.0 |
| 20260506154518 | 66 | 232 | 5.0 | 21.0 | 0.00 | 0.00 | 0.00 | 69 | 1007.2 |
| 20260506153017 | 66 | 141 | 4.0 | 12.0 | 0.00 | 0.00 | 0.00 | 69 | 1007.5 |
| 20260506151517 | 66 | 196 | 4.0 | 15.0 | 0.00 | 0.00 | 0.00 | 70 | 1007.6 |
| 20260506150022 | 66 | 167 | 10.0 | 21.0 | 0.00 | 0.00 | 0.00 | 69 | 1007.8 |
| 20260506144513 | 67 | 165 | 2.0 | 14.0 | 0.00 | 0.00 | 0.00 | 70 | 1007.3 |
| 20260506143012 | 67 | 186 | 6.0 | 18.0 | 0.00 | 0.00 | 0.00 | 68 | 1007.5 |
| 20260506141509 | 66 | 105 | 6.0 | 15.0 | 0.00 | 0.00 | 0.00 | 70 | 1007.3 |
| 20260506140007 | 66 | 199 | 1.0 | 7.0 | 0.00 | 0.00 | 0.00 | 71 | 1007.4 |
| 20260506134512 | 65 | 204 | 1.0 | 9.0 | 0.00 | 0.00 | 0.00 | 73 | 1007.2 |
| 20260506133002 | 64 | 150 | 7.0 | 14.0 | 0.00 | 0.00 | 0.00 | 73 | 1007.4 |
| 20260506131503 | 64 | 161 | 3.0 | 12.0 | 0.00 | 0.00 | 0.00 | 75 | 1007.5 |
| 20260506130059 | 64 | 213 | 4.0 | 11.0 | 0.00 | 0.00 | 0.00 | 76 | 1007.6 |
| 20260506124603 | 63 | 129 | 5.0 | 13.0 | 0.00 | 0.00 | 0.00 | 78 | 1007.6 |
| 20260506123058 | 62 | 178 | 7.0 | 18.0 | 0.00 | 0.00 | 0.00 | 78 | 1007.9 |
| 20260506121606 | 62 | 159 | 4.0 | 12.0 | 0.00 | 0.00 | 0.00 | 78 | 1007.7 |
| 20260506120055 | 62 | 146 | 7.0 | 17.0 | 0.00 | 0.00 | 0.00 | 78 | 1007.7 |
| 20260506114556 | 62 | 188 | 4.0 | 13.0 | 0.00 | 0.00 | 0.00 | 78 | 1007.8 |
| 20260506113054 | 61 | 96 | 3.0 | 10.0 | 0.00 | 0.00 | 0.00 | 80 | 1008.0 |